sensor_id;sensor_type;location;lat;lon;timestamp;temperature;humidity
1453;DHT22;720;47.738;7.998;2024-01-07T00:00:01;4.40;99.90
1453;DHT22;720;47.738;7.998;2024-01-07T00:02:27;4.40;99.90
1453;DHT22;720;47.738;7.998;2024-01-07T00:04:53;4.40;99.90
1453;DHT22;720;47.738;7.998;2024-01-07T00:07:18;4.40;99.90
1453;DHT22;720;47.738;7.998;2024-01-07T00:09:46;4.40;99.90
1453;DHT22;720;47.738;7.998;2024-01-07T00:12:11;4.40;99.90
1453;DHT22;720;47.738;7.998;2024-01-07T00:14:37;4.40;99.90
1453;DHT22;720;47.738;7.998;2024-01-07T00:17:03;4.40;99.90
1453;DHT22;720;47.738;7.998;2024-01-07T00:19:28;4.40;99.90
1453;DHT22;720;47.738;7.998;2024-01-07T00:21:57;4.40;99.90
1453;DHT22;720;47.738;7.998;2024-01-07T00:24:22;4.30;99.90
1453;DHT22;720;47.738;7.998;2024-01-07T00:26:51;4.30;99.90
1453;DHT22;720;47.738;7.998;2024-01-07T00:29:16;4.30;99.90
1453;DHT22;720;47.738;7.998;2024-01-07T00:31:42;4.20;99.90
1453;DHT22;720;47.738;7.998;2024-01-07T00:34:08;4.30;99.90
1453;DHT22;720;47.738;7.998;2024-01-07T00:36:33;4.40;99.90
1453;DHT22;720;47.738;7.998;2024-01-07T00:38:59;4.40;99.90
1453;DHT22;720;47.738;7.998;2024-01-07T00:41:24;4.40;99.90
1453;DHT22;720;47.738;7.998;2024-01-07T00:43:50;4.40;99.90
1453;DHT22;720;47.738;7.998;2024-01-07T00:46:16;4.30;99.90
1453;DHT22;720;47.738;7.998;2024-01-07T00:48:41;4.40;99.90
1453;DHT22;720;47.738;7.998;2024-01-07T00:51:07;4.30;99.90
1453;DHT22;720;47.738;7.998;2024-01-07T00:53:32;4.30;99.90
1453;DHT22;720;47.738;7.998;2024-01-07T00:55:58;4.30;99.90
1453;DHT22;720;47.738;7.998;2024-01-07T00:58:24;4.40;99.90
1453;DHT22;720;47.738;7.998;2024-01-07T01:00:50;4.40;99.90
1453;DHT22;720;47.738;7.998;2024-01-07T01:03:16;4.40;99.90
1453;DHT22;720;47.738;7.998;2024-01-07T01:05:42;4.40;99.90
1453;DHT22;720;47.738;7.998;2024-01-07T01:08:07;4.30;99.90
1453;DHT22;720;47.738;7.998;2024-01-07T01:10:33;4.30;99.90
1453;DHT22;720;47.738;7.998;2024-01-07T01:12:58;4.30;99.90
1453;DHT22;720;47.738;7.998;2024-01-07T01:15:24;4.40;99.90
1453;DHT22;720;47.738;7.998;2024-01-07T01:17:50;4.40;99.90
1453;DHT22;720;47.738;7.998;2024-01-07T01:20:15;4.40;99.90
1453;DHT22;720;47.738;7.998;2024-01-07T01:22:41;4.40;99.90
1453;DHT22;720;47.738;7.998;2024-01-07T01:25:07;4.30;99.90
1453;DHT22;720;47.738;7.998;2024-01-07T01:27:33;4.30;99.90
1453;DHT22;720;47.738;7.998;2024-01-07T01:29:58;4.20;99.90
1453;DHT22;720;47.738;7.998;2024-01-07T01:32:24;4.20;99.90
1453;DHT22;720;47.738;7.998;2024-01-07T01:34:50;3.90;99.90
1453;DHT22;720;47.738;7.998;2024-01-07T01:37:15;3.90;99.90
1453;DHT22;720;47.738;7.998;2024-01-07T01:39:41;4.00;99.90
1453;DHT22;720;47.738;7.998;2024-01-07T01:42:07;3.90;99.90
1453;DHT22;720;47.738;7.998;2024-01-07T01:44:33;3.80;99.90
1453;DHT22;720;47.738;7.998;2024-01-07T01:46:59;3.90;99.90
1453;DHT22;720;47.738;7.998;2024-01-07T01:49:27;3.90;99.90
1453;DHT22;720;47.738;7.998;2024-01-07T01:51:53;3.90;99.90
1453;DHT22;720;47.738;7.998;2024-01-07T01:54:19;3.90;99.90
1453;DHT22;720;47.738;7.998;2024-01-07T01:56:46;3.90;99.90
1453;DHT22;720;47.738;7.998;2024-01-07T01:59:13;3.80;99.90
1453;DHT22;720;47.738;7.998;2024-01-07T02:01:39;3.90;99.90
1453;DHT22;720;47.738;7.998;2024-01-07T02:04:05;3.90;99.90
1453;DHT22;720;47.738;7.998;2024-01-07T02:06:31;4.00;99.90
1453;DHT22;720;47.738;7.998;2024-01-07T02:08:57;3.90;99.90
1453;DHT22;720;47.738;7.998;2024-01-07T02:11:22;3.90;99.90
1453;DHT22;720;47.738;7.998;2024-01-07T02:13:49;3.90;99.90
1453;DHT22;720;47.738;7.998;2024-01-07T02:16:15;4.00;99.90
1453;DHT22;720;47.738;7.998;2024-01-07T02:18:42;3.90;99.90
1453;DHT22;720;47.738;7.998;2024-01-07T02:21:09;3.90;99.90
1453;DHT22;720;47.738;7.998;2024-01-07T02:23:35;3.90;99.90
1453;DHT22;720;47.738;7.998;2024-01-07T02:26:01;3.90;99.90
1453;DHT22;720;47.738;7.998;2024-01-07T02:28:27;4.00;99.90
1453;DHT22;720;47.738;7.998;2024-01-07T02:30:52;4.00;99.90
1453;DHT22;720;47.738;7.998;2024-01-07T02:33:18;3.90;99.90
1453;DHT22;720;47.738;7.998;2024-01-07T02:35:44;3.90;99.90
1453;DHT22;720;47.738;7.998;2024-01-07T02:38:09;3.90;99.90
1453;DHT22;720;47.738;7.998;2024-01-07T02:40:35;3.90;99.90
1453;DHT22;720;47.738;7.998;2024-01-07T02:43:00;3.90;99.90
1453;DHT22;720;47.738;7.998;2024-01-07T02:45:26;4.00;99.90
1453;DHT22;720;47.738;7.998;2024-01-07T02:47:52;4.10;99.90
1453;DHT22;720;47.738;7.998;2024-01-07T02:50:17;4.20;99.90
1453;DHT22;720;47.738;7.998;2024-01-07T02:52:43;4.20;99.90
1453;DHT22;720;47.738;7.998;2024-01-07T02:55:09;4.10;99.90
1453;DHT22;720;47.738;7.998;2024-01-07T02:57:34;4.10;99.90
1453;DHT22;720;47.738;7.998;2024-01-07T03:00:00;4.00;99.90
1453;DHT22;720;47.738;7.998;2024-01-07T03:02:26;3.90;99.90
1453;DHT22;720;47.738;7.998;2024-01-07T03:04:52;3.80;99.90
1453;DHT22;720;47.738;7.998;2024-01-07T03:07:17;3.80;99.90
1453;DHT22;720;47.738;7.998;2024-01-07T03:09:43;4.00;99.90
1453;DHT22;720;47.738;7.998;2024-01-07T03:12:08;3.90;99.90
1453;DHT22;720;47.738;7.998;2024-01-07T03:14:34;3.90;99.90
1453;DHT22;720;47.738;7.998;2024-01-07T03:17:00;3.90;99.90
1453;DHT22;720;47.738;7.998;2024-01-07T03:19:25;3.90;99.90
1453;DHT22;720;47.738;7.998;2024-01-07T03:21:51;4.00;99.90
1453;DHT22;720;47.738;7.998;2024-01-07T03:24:17;3.90;99.80
1453;DHT22;720;47.738;7.998;2024-01-07T03:26:42;3.90;99.90
1453;DHT22;720;47.738;7.998;2024-01-07T03:29:08;4.00;99.90
1453;DHT22;720;47.738;7.998;2024-01-07T03:31:33;4.00;99.90
1453;DHT22;720;47.738;7.998;2024-01-07T03:33:59;4.00;99.90
1453;DHT22;720;47.738;7.998;2024-01-07T03:36:25;4.00;99.90
1453;DHT22;720;47.738;7.998;2024-01-07T03:38:50;4.10;99.90
1453;DHT22;720;47.738;7.998;2024-01-07T03:41:17;4.20;99.90
1453;DHT22;720;47.738;7.998;2024-01-07T03:43:47;4.20;99.90
1453;DHT22;720;47.738;7.998;2024-01-07T03:46:13;4.20;99.80
1453;DHT22;720;47.738;7.998;2024-01-07T03:48:39;4.20;99.80
1453;DHT22;720;47.738;7.998;2024-01-07T03:51:05;4.20;99.80
1453;DHT22;720;47.738;7.998;2024-01-07T03:53:31;4.10;99.50
1453;DHT22;720;47.738;7.998;2024-01-07T03:55:56;4.10;99.50
1453;DHT22;720;47.738;7.998;2024-01-07T03:58:22;4.20;99.50
1453;DHT22;720;47.738;7.998;2024-01-07T04:00:48;4.20;99.30
1453;DHT22;720;47.738;7.998;2024-01-07T04:03:14;4.10;99.40
1453;DHT22;720;47.738;7.998;2024-01-07T04:05:40;4.10;99.40
1453;DHT22;720;47.738;7.998;2024-01-07T04:08:08;4.10;99.20
1453;DHT22;720;47.738;7.998;2024-01-07T04:10:34;4.10;99.20
1453;DHT22;720;47.738;7.998;2024-01-07T04:13:00;4.10;99.40
1453;DHT22;720;47.738;7.998;2024-01-07T04:15:25;4.10;99.40
1453;DHT22;720;47.738;7.998;2024-01-07T04:17:51;4.10;99.20
1453;DHT22;720;47.738;7.998;2024-01-07T04:20:16;4.20;99.40
1453;DHT22;720;47.738;7.998;2024-01-07T04:22:42;4.10;99.20
1453;DHT22;720;47.738;7.998;2024-01-07T04:25:08;4.00;98.90
1453;DHT22;720;47.738;7.998;2024-01-07T04:27:37;3.90;98.90
1453;DHT22;720;47.738;7.998;2024-01-07T04:30:04;4.00;99.00
1453;DHT22;720;47.738;7.998;2024-01-07T04:32:30;3.90;99.10
1453;DHT22;720;47.738;7.998;2024-01-07T04:34:55;3.90;98.80
1453;DHT22;720;47.738;7.998;2024-01-07T04:37:23;3.90;98.90
1453;DHT22;720;47.738;7.998;2024-01-07T04:39:48;3.90;98.60
1453;DHT22;720;47.738;7.998;2024-01-07T04:42:15;4.00;98.90
1453;DHT22;720;47.738;7.998;2024-01-07T04:44:40;4.10;99.20
1453;DHT22;720;47.738;7.998;2024-01-07T04:47:26;4.20;99.10
1453;DHT22;720;47.738;7.998;2024-01-07T04:49:53;4.10;99.10
1453;DHT22;720;47.738;7.998;2024-01-07T04:52:19;4.10;99.10
1453;DHT22;720;47.738;7.998;2024-01-07T04:54:44;4.10;98.80
1453;DHT22;720;47.738;7.998;2024-01-07T04:57:10;4.00;98.70
1453;DHT22;720;47.738;7.998;2024-01-07T04:59:35;4.00;98.70
1453;DHT22;720;47.738;7.998;2024-01-07T05:02:01;4.10;99.10
1453;DHT22;720;47.738;7.998;2024-01-07T05:04:27;4.00;99.30
1453;DHT22;720;47.738;7.998;2024-01-07T05:06:52;4.10;99.40
1453;DHT22;720;47.738;7.998;2024-01-07T05:09:18;4.10;99.30
1453;DHT22;720;47.738;7.998;2024-01-07T05:11:43;3.90;98.50
1453;DHT22;720;47.738;7.998;2024-01-07T05:14:11;4.00;98.90
1453;DHT22;720;47.738;7.998;2024-01-07T05:16:37;4.10;98.90
1453;DHT22;720;47.738;7.998;2024-01-07T05:19:02;4.10;99.10
1453;DHT22;720;47.738;7.998;2024-01-07T05:21:29;4.10;99.40
1453;DHT22;720;47.738;7.998;2024-01-07T05:23:55;4.10;99.20
1453;DHT22;720;47.738;7.998;2024-01-07T05:26:21;3.90;99.50
1453;DHT22;720;47.738;7.998;2024-01-07T05:28:46;4.00;99.60
1453;DHT22;720;47.738;7.998;2024-01-07T05:31:18;4.00;99.70
1453;DHT22;720;47.738;7.998;2024-01-07T05:33:45;4.10;99.70
1453;DHT22;720;47.738;7.998;2024-01-07T05:36:12;4.10;99.00
1453;DHT22;720;47.738;7.998;2024-01-07T05:38:41;4.20;99.20
1453;DHT22;720;47.738;7.998;2024-01-07T05:41:06;4.00;99.60
1453;DHT22;720;47.738;7.998;2024-01-07T05:43:32;4.10;99.30
1453;DHT22;720;47.738;7.998;2024-01-07T05:45:57;4.20;99.20
1453;DHT22;720;47.738;7.998;2024-01-07T05:48:23;4.20;99.00
1453;DHT22;720;47.738;7.998;2024-01-07T05:50:49;4.20;99.00
1453;DHT22;720;47.738;7.998;2024-01-07T05:53:16;4.30;99.00
1453;DHT22;720;47.738;7.998;2024-01-07T05:55:41;4.30;99.00
1453;DHT22;720;47.738;7.998;2024-01-07T05:58:07;4.20;99.10
1453;DHT22;720;47.738;7.998;2024-01-07T06:00:32;4.20;99.10
1453;DHT22;720;47.738;7.998;2024-01-07T06:02:58;4.20;99.30
1453;DHT22;720;47.738;7.998;2024-01-07T06:05:24;4.30;99.40
1453;DHT22;720;47.738;7.998;2024-01-07T06:07:49;4.30;99.50
1453;DHT22;720;47.738;7.998;2024-01-07T06:10:15;4.30;99.30
1453;DHT22;720;47.738;7.998;2024-01-07T06:12:41;4.30;99.40
1453;DHT22;720;47.738;7.998;2024-01-07T06:15:07;4.40;99.50
1453;DHT22;720;47.738;7.998;2024-01-07T06:17:32;4.50;99.60
1453;DHT22;720;47.738;7.998;2024-01-07T06:19:58;4.40;99.50
1453;DHT22;720;47.738;7.998;2024-01-07T06:22:24;4.50;99.60
1453;DHT22;720;47.738;7.998;2024-01-07T06:24:49;4.50;99.50
1453;DHT22;720;47.738;7.998;2024-01-07T06:27:15;4.40;99.60
1453;DHT22;720;47.738;7.998;2024-01-07T06:29:40;4.20;99.40
1453;DHT22;720;47.738;7.998;2024-01-07T06:32:06;4.20;99.90
1453;DHT22;720;47.738;7.998;2024-01-07T06:34:32;4.20;99.90
1453;DHT22;720;47.738;7.998;2024-01-07T06:36:58;4.20;99.70
1453;DHT22;720;47.738;7.998;2024-01-07T06:39:24;4.20;99.70
1453;DHT22;720;47.738;7.998;2024-01-07T06:41:52;4.30;99.70
1453;DHT22;720;47.738;7.998;2024-01-07T06:44:18;4.30;99.90
1453;DHT22;720;47.738;7.998;2024-01-07T06:46:44;4.40;99.80
1453;DHT22;720;47.738;7.998;2024-01-07T06:49:09;4.40;99.50
1453;DHT22;720;47.738;7.998;2024-01-07T06:51:35;4.30;99.60
1453;DHT22;720;47.738;7.998;2024-01-07T06:54:00;4.30;99.70
1453;DHT22;720;47.738;7.998;2024-01-07T06:56:26;4.40;99.80
1453;DHT22;720;47.738;7.998;2024-01-07T06:58:52;4.40;99.90
1453;DHT22;720;47.738;7.998;2024-01-07T07:01:20;4.40;99.90
1453;DHT22;720;47.738;7.998;2024-01-07T07:03:46;4.40;99.90
1453;DHT22;720;47.738;7.998;2024-01-07T07:06:11;4.50;99.90
1453;DHT22;720;47.738;7.998;2024-01-07T07:08:38;4.60;99.90
1453;DHT22;720;47.738;7.998;2024-01-07T07:11:03;4.60;99.90
1453;DHT22;720;47.738;7.998;2024-01-07T07:13:29;4.60;99.90
1453;DHT22;720;47.738;7.998;2024-01-07T07:15:55;4.50;99.90
1453;DHT22;720;47.738;7.998;2024-01-07T07:18:20;4.40;99.90
1453;DHT22;720;47.738;7.998;2024-01-07T07:20:47;4.50;99.90
1453;DHT22;720;47.738;7.998;2024-01-07T07:23:12;4.50;99.90
1453;DHT22;720;47.738;7.998;2024-01-07T07:25:39;4.20;99.90
1453;DHT22;720;47.738;7.998;2024-01-07T07:28:04;4.20;99.90
1453;DHT22;720;47.738;7.998;2024-01-07T07:30:30;4.30;99.90
1453;DHT22;720;47.738;7.998;2024-01-07T07:32:56;4.30;99.90
1453;DHT22;720;47.738;7.998;2024-01-07T07:35:21;4.20;99.90
1453;DHT22;720;47.738;7.998;2024-01-07T07:37:47;4.30;99.90
1453;DHT22;720;47.738;7.998;2024-01-07T07:40:13;4.20;99.90
1453;DHT22;720;47.738;7.998;2024-01-07T07:42:39;4.20;99.90
1453;DHT22;720;47.738;7.998;2024-01-07T07:45:05;4.10;99.90
1453;DHT22;720;47.738;7.998;2024-01-07T07:47:31;4.20;99.90
1453;DHT22;720;47.738;7.998;2024-01-07T07:49:56;4.30;99.90
1453;DHT22;720;47.738;7.998;2024-01-07T07:52:22;4.30;99.90
1453;DHT22;720;47.738;7.998;2024-01-07T07:54:51;4.30;99.90
1453;DHT22;720;47.738;7.998;2024-01-07T07:57:17;4.40;99.90
1453;DHT22;720;47.738;7.998;2024-01-07T07:59:42;4.40;99.90
1453;DHT22;720;47.738;7.998;2024-01-07T08:02:08;4.10;99.70
1453;DHT22;720;47.738;7.998;2024-01-07T08:04:33;4.10;99.90
1453;DHT22;720;47.738;7.998;2024-01-07T08:06:59;4.10;99.90
1453;DHT22;720;47.738;7.998;2024-01-07T08:09:26;4.20;99.90
1453;DHT22;720;47.738;7.998;2024-01-07T08:11:51;4.30;99.90
1453;DHT22;720;47.738;7.998;2024-01-07T08:14:17;4.40;99.90
1453;DHT22;720;47.738;7.998;2024-01-07T08:16:43;4.50;99.90
1453;DHT22;720;47.738;7.998;2024-01-07T08:19:08;4.60;99.70
1453;DHT22;720;47.738;7.998;2024-01-07T08:21:35;4.60;99.50
1453;DHT22;720;47.738;7.998;2024-01-07T08:24:00;4.60;98.90
1453;DHT22;720;47.738;7.998;2024-01-07T08:26:26;4.50;99.00
1453;DHT22;720;47.738;7.998;2024-01-07T08:28:52;4.40;98.60
1453;DHT22;720;47.738;7.998;2024-01-07T08:31:17;4.40;99.10
1453;DHT22;720;47.738;7.998;2024-01-07T08:33:43;4.40;99.50
1453;DHT22;720;47.738;7.998;2024-01-07T08:36:09;4.50;99.90
1453;DHT22;720;47.738;7.998;2024-01-07T08:38:34;4.60;99.80
1453;DHT22;720;47.738;7.998;2024-01-07T08:41:00;4.50;99.90
1453;DHT22;720;47.738;7.998;2024-01-07T08:43:26;4.40;99.20
1453;DHT22;720;47.738;7.998;2024-01-07T08:45:52;4.40;99.10
1453;DHT22;720;47.738;7.998;2024-01-07T08:48:18;4.40;98.90
1453;DHT22;720;47.738;7.998;2024-01-07T08:50:43;4.30;98.80
1453;DHT22;720;47.738;7.998;2024-01-07T08:53:09;4.40;99.20
1453;DHT22;720;47.738;7.998;2024-01-07T08:55:34;4.60;99.70
1453;DHT22;720;47.738;7.998;2024-01-07T08:58:00;4.60;99.30
1453;DHT22;720;47.738;7.998;2024-01-07T09:00:26;4.50;99.90
1453;DHT22;720;47.738;7.998;2024-01-07T09:02:52;4.60;99.80
1453;DHT22;720;47.738;7.998;2024-01-07T09:05:18;4.60;99.90
1453;DHT22;720;47.738;7.998;2024-01-07T09:07:44;4.80;99.40
1453;DHT22;720;47.738;7.998;2024-01-07T09:10:09;4.80;99.00
1453;DHT22;720;47.738;7.998;2024-01-07T09:12:37;5.00;99.10
1453;DHT22;720;47.738;7.998;2024-01-07T09:15:03;5.00;98.80
1453;DHT22;720;47.738;7.998;2024-01-07T09:17:30;5.20;99.00
1453;DHT22;720;47.738;7.998;2024-01-07T09:19:56;5.10;98.60
1453;DHT22;720;47.738;7.998;2024-01-07T09:22:22;5.10;98.50
1453;DHT22;720;47.738;7.998;2024-01-07T09:24:47;4.90;98.30
1453;DHT22;720;47.738;7.998;2024-01-07T09:27:13;4.70;98.50
1453;DHT22;720;47.738;7.998;2024-01-07T09:29:39;4.70;98.80
1453;DHT22;720;47.738;7.998;2024-01-07T09:32:05;4.70;98.40
1453;DHT22;720;47.738;7.998;2024-01-07T09:34:31;4.70;98.70
1453;DHT22;720;47.738;7.998;2024-01-07T09:36:56;4.80;98.70
1453;DHT22;720;47.738;7.998;2024-01-07T09:39:22;4.80;98.20
1453;DHT22;720;47.738;7.998;2024-01-07T09:41:48;4.90;98.10
1453;DHT22;720;47.738;7.998;2024-01-07T09:44:13;5.00;98.30
1453;DHT22;720;47.738;7.998;2024-01-07T09:46:40;5.10;98.30
1453;DHT22;720;47.738;7.998;2024-01-07T09:49:07;5.20;98.20
1453;DHT22;720;47.738;7.998;2024-01-07T09:51:35;5.20;97.70
1453;DHT22;720;47.738;7.998;2024-01-07T09:54:03;5.10;97.70
1453;DHT22;720;47.738;7.998;2024-01-07T09:56:45;5.10;97.20
1453;DHT22;720;47.738;7.998;2024-01-07T09:59:14;5.10;97.10
1453;DHT22;720;47.738;7.998;2024-01-07T10:01:41;5.20;97.60
1453;DHT22;720;47.738;7.998;2024-01-07T10:04:08;5.50;97.20
1453;DHT22;720;47.738;7.998;2024-01-07T10:06:34;5.60;96.10
1453;DHT22;720;47.738;7.998;2024-01-07T10:09:00;5.60;96.00
1453;DHT22;720;47.738;7.998;2024-01-07T10:11:25;5.60;96.50
1453;DHT22;720;47.738;7.998;2024-01-07T10:13:51;5.50;96.20
1453;DHT22;720;47.738;7.998;2024-01-07T10:16:17;5.40;96.60
1453;DHT22;720;47.738;7.998;2024-01-07T10:18:43;5.30;96.30
1453;DHT22;720;47.738;7.998;2024-01-07T10:21:08;5.00;96.40
1453;DHT22;720;47.738;7.998;2024-01-07T10:23:34;4.90;96.50
1453;DHT22;720;47.738;7.998;2024-01-07T10:26:00;4.90;96.90
1453;DHT22;720;47.738;7.998;2024-01-07T10:28:28;4.90;97.00
1453;DHT22;720;47.738;7.998;2024-01-07T10:30:53;4.90;97.10
1453;DHT22;720;47.738;7.998;2024-01-07T10:33:19;4.80;96.90
1453;DHT22;720;47.738;7.998;2024-01-07T10:35:52;4.70;97.60
1453;DHT22;720;47.738;7.998;2024-01-07T10:38:20;4.80;97.10
1453;DHT22;720;47.738;7.998;2024-01-07T10:40:48;4.80;97.70
1453;DHT22;720;47.738;7.998;2024-01-07T10:43:15;5.00;97.90
1453;DHT22;720;47.738;7.998;2024-01-07T10:45:42;5.00;97.20
1453;DHT22;720;47.738;7.998;2024-01-07T10:48:10;5.10;97.40
1453;DHT22;720;47.738;7.998;2024-01-07T10:50:37;5.10;96.40
1453;DHT22;720;47.738;7.998;2024-01-07T10:53:04;5.10;96.10
1453;DHT22;720;47.738;7.998;2024-01-07T10:55:34;5.30;95.90
1453;DHT22;720;47.738;7.998;2024-01-07T10:58:03;5.20;95.80
1453;DHT22;720;47.738;7.998;2024-01-07T11:00:30;5.20;96.40
1453;DHT22;720;47.738;7.998;2024-01-07T11:05:54;5.00;95.50
1453;DHT22;720;47.738;7.998;2024-01-07T11:11:06;5.00;96.30
1453;DHT22;720;47.738;7.998;2024-01-07T11:13:33;5.00;95.90
1453;DHT22;720;47.738;7.998;2024-01-07T11:16:01;5.00;95.60
1453;DHT22;720;47.738;7.998;2024-01-07T11:18:27;4.90;96.10
1453;DHT22;720;47.738;7.998;2024-01-07T11:21:02;5.00;95.80
1453;DHT22;720;47.738;7.998;2024-01-07T11:23:33;5.00;95.90
1453;DHT22;720;47.738;7.998;2024-01-07T11:26:02;5.00;95.90
1453;DHT22;720;47.738;7.998;2024-01-07T11:31:13;5.10;95.60
1453;DHT22;720;47.738;7.998;2024-01-07T11:33:41;5.00;95.40
1453;DHT22;720;47.738;7.998;2024-01-07T11:36:07;4.90;95.40
1453;DHT22;720;47.738;7.998;2024-01-07T11:38:34;4.80;95.70
1453;DHT22;720;47.738;7.998;2024-01-07T11:41:01;4.70;95.40
1453;DHT22;720;47.738;7.998;2024-01-07T11:43:28;4.80;95.70
1453;DHT22;720;47.738;7.998;2024-01-07T11:45:54;4.90;95.30
1453;DHT22;720;47.738;7.998;2024-01-07T11:48:20;5.00;94.90
1453;DHT22;720;47.738;7.998;2024-01-07T11:50:46;5.00;94.60
1453;DHT22;720;47.738;7.998;2024-01-07T11:53:12;5.00;94.90
1453;DHT22;720;47.738;7.998;2024-01-07T11:55:38;4.80;95.10
1453;DHT22;720;47.738;7.998;2024-01-07T11:58:04;4.90;95.30
1453;DHT22;720;47.738;7.998;2024-01-07T12:00:34;5.00;95.00
1453;DHT22;720;47.738;7.998;2024-01-07T12:03:01;5.20;94.80
1453;DHT22;720;47.738;7.998;2024-01-07T12:05:27;5.20;94.70
1453;DHT22;720;47.738;7.998;2024-01-07T12:07:53;5.30;94.50
1453;DHT22;720;47.738;7.998;2024-01-07T12:10:19;5.30;94.30
1453;DHT22;720;47.738;7.998;2024-01-07T12:12:45;5.40;94.20
1453;DHT22;720;47.738;7.998;2024-01-07T12:15:12;5.30;94.70
1453;DHT22;720;47.738;7.998;2024-01-07T12:17:41;5.20;94.40
1453;DHT22;720;47.738;7.998;2024-01-07T12:20:07;5.30;95.00
1453;DHT22;720;47.738;7.998;2024-01-07T12:22:38;5.20;94.40
1453;DHT22;720;47.738;7.998;2024-01-07T12:25:05;5.10;94.50
1453;DHT22;720;47.738;7.998;2024-01-07T12:27:31;5.20;94.50
1453;DHT22;720;47.738;7.998;2024-01-07T12:29:57;5.30;94.70
1453;DHT22;720;47.738;7.998;2024-01-07T12:32:26;5.50;94.80
1453;DHT22;720;47.738;7.998;2024-01-07T12:34:52;5.60;94.60
1453;DHT22;720;47.738;7.998;2024-01-07T12:37:18;5.60;94.30
1453;DHT22;720;47.738;7.998;2024-01-07T12:39:43;5.80;94.30
1453;DHT22;720;47.738;7.998;2024-01-07T12:42:09;5.90;94.20
1453;DHT22;720;47.738;7.998;2024-01-07T12:44:36;6.00;94.60
1453;DHT22;720;47.738;7.998;2024-01-07T12:47:02;6.00;94.80
1453;DHT22;720;47.738;7.998;2024-01-07T12:49:29;5.90;94.10
1453;DHT22;720;47.738;7.998;2024-01-07T12:51:54;5.70;94.40
1453;DHT22;720;47.738;7.998;2024-01-07T12:54:20;5.60;94.10
1453;DHT22;720;47.738;7.998;2024-01-07T12:56:47;5.50;94.90
1453;DHT22;720;47.738;7.998;2024-01-07T12:59:12;5.40;94.60
1453;DHT22;720;47.738;7.998;2024-01-07T13:01:38;5.40;94.70
1453;DHT22;720;47.738;7.998;2024-01-07T13:04:04;5.40;94.20
1453;DHT22;720;47.738;7.998;2024-01-07T13:06:30;5.30;94.10
1453;DHT22;720;47.738;7.998;2024-01-07T13:08:55;5.10;94.80
1453;DHT22;720;47.738;7.998;2024-01-07T13:11:21;5.10;94.80
1453;DHT22;720;47.738;7.998;2024-01-07T13:13:47;5.00;94.40
1453;DHT22;720;47.738;7.998;2024-01-07T13:16:13;4.90;94.60
1453;DHT22;720;47.738;7.998;2024-01-07T13:18:38;4.90;94.60
1453;DHT22;720;47.738;7.998;2024-01-07T13:21:04;4.90;95.00
1453;DHT22;720;47.738;7.998;2024-01-07T13:23:32;4.80;94.50
1453;DHT22;720;47.738;7.998;2024-01-07T13:25:58;4.70;94.60
1453;DHT22;720;47.738;7.998;2024-01-07T13:28:24;4.60;94.30
1453;DHT22;720;47.738;7.998;2024-01-07T13:30:50;4.60;94.90
1453;DHT22;720;47.738;7.998;2024-01-07T13:33:15;4.60;94.50
1453;DHT22;720;47.738;7.998;2024-01-07T13:35:43;4.60;94.40
1453;DHT22;720;47.738;7.998;2024-01-07T13:38:09;4.40;94.00
1453;DHT22;720;47.738;7.998;2024-01-07T13:40:35;4.30;94.10
1453;DHT22;720;47.738;7.998;2024-01-07T13:43:01;4.10;94.20
1453;DHT22;720;47.738;7.998;2024-01-07T13:45:28;4.10;94.50
1453;DHT22;720;47.738;7.998;2024-01-07T13:47:54;3.90;94.10
1453;DHT22;720;47.738;7.998;2024-01-07T13:50:21;3.90;94.10
1453;DHT22;720;47.738;7.998;2024-01-07T13:52:47;3.80;94.60
1453;DHT22;720;47.738;7.998;2024-01-07T13:55:13;3.90;94.60
1453;DHT22;720;47.738;7.998;2024-01-07T13:57:40;4.10;94.60
1453;DHT22;720;47.738;7.998;2024-01-07T14:00:07;4.10;94.40
1453;DHT22;720;47.738;7.998;2024-01-07T14:02:38;4.10;94.40
1453;DHT22;720;47.738;7.998;2024-01-07T14:05:06;4.10;94.80
1453;DHT22;720;47.738;7.998;2024-01-07T14:07:35;4.10;94.60
1453;DHT22;720;47.738;7.998;2024-01-07T14:10:01;4.10;94.30
1453;DHT22;720;47.738;7.998;2024-01-07T14:12:31;4.10;94.30
1453;DHT22;720;47.738;7.998;2024-01-07T14:14:57;4.10;94.20
1453;DHT22;720;47.738;7.998;2024-01-07T14:17:24;4.00;94.40
1453;DHT22;720;47.738;7.998;2024-01-07T14:19:50;4.10;94.70
1453;DHT22;720;47.738;7.998;2024-01-07T14:22:21;4.20;94.60
1453;DHT22;720;47.738;7.998;2024-01-07T14:24:47;4.20;94.10
1453;DHT22;720;47.738;7.998;2024-01-07T14:27:16;4.20;94.50
1453;DHT22;720;47.738;7.998;2024-01-07T14:29:44;4.20;94.80
1453;DHT22;720;47.738;7.998;2024-01-07T14:32:11;4.30;94.90
1453;DHT22;720;47.738;7.998;2024-01-07T14:34:41;4.30;94.40
1453;DHT22;720;47.738;7.998;2024-01-07T14:37:09;4.30;94.20
1453;DHT22;720;47.738;7.998;2024-01-07T14:39:38;4.30;94.20
1453;DHT22;720;47.738;7.998;2024-01-07T14:42:04;4.20;94.10
1453;DHT22;720;47.738;7.998;2024-01-07T14:44:30;4.30;94.20
1453;DHT22;720;47.738;7.998;2024-01-07T14:46:57;4.30;94.00
1453;DHT22;720;47.738;7.998;2024-01-07T14:49:23;4.40;94.20
1453;DHT22;720;47.738;7.998;2024-01-07T14:51:51;4.20;93.80
1453;DHT22;720;47.738;7.998;2024-01-07T14:54:22;4.00;94.10
1453;DHT22;720;47.738;7.998;2024-01-07T14:56:48;4.10;94.30
1453;DHT22;720;47.738;7.998;2024-01-07T14:59:13;3.90;94.60
1453;DHT22;720;47.738;7.998;2024-01-07T15:01:39;3.90;94.60
1453;DHT22;720;47.738;7.998;2024-01-07T15:04:07;4.00;94.80
1453;DHT22;720;47.738;7.998;2024-01-07T15:06:43;4.00;94.80
1453;DHT22;720;47.738;7.998;2024-01-07T15:09:11;4.10;94.60
1453;DHT22;720;47.738;7.998;2024-01-07T15:11:39;3.90;94.30
1453;DHT22;720;47.738;7.998;2024-01-07T15:14:08;3.80;94.60
1453;DHT22;720;47.738;7.998;2024-01-07T15:16:36;3.70;94.20
1453;DHT22;720;47.738;7.998;2024-01-07T15:19:02;3.70;94.60
1453;DHT22;720;47.738;7.998;2024-01-07T15:21:29;3.60;94.30
1453;DHT22;720;47.738;7.998;2024-01-07T15:23:55;3.60;94.30
1453;DHT22;720;47.738;7.998;2024-01-07T15:26:21;3.50;94.70
1453;DHT22;720;47.738;7.998;2024-01-07T15:28:46;3.40;94.90
1453;DHT22;720;47.738;7.998;2024-01-07T15:31:12;3.50;95.30
1453;DHT22;720;47.738;7.998;2024-01-07T15:33:38;3.50;95.40
1453;DHT22;720;47.738;7.998;2024-01-07T15:36:03;3.40;95.50
1453;DHT22;720;47.738;7.998;2024-01-07T15:38:29;3.40;95.40
1453;DHT22;720;47.738;7.998;2024-01-07T15:40:55;3.30;95.50
1453;DHT22;720;47.738;7.998;2024-01-07T15:43:21;3.30;95.50
1453;DHT22;720;47.738;7.998;2024-01-07T15:45:46;3.30;95.70
1453;DHT22;720;47.738;7.998;2024-01-07T15:48:12;3.30;95.30
1453;DHT22;720;47.738;7.998;2024-01-07T15:50:38;3.40;95.70
1453;DHT22;720;47.738;7.998;2024-01-07T15:53:04;3.30;95.40
1453;DHT22;720;47.738;7.998;2024-01-07T15:55:30;3.20;95.50
1453;DHT22;720;47.738;7.998;2024-01-07T15:57:55;3.20;95.40
1453;DHT22;720;47.738;7.998;2024-01-07T16:00:21;3.20;95.60
1453;DHT22;720;47.738;7.998;2024-01-07T16:02:46;3.20;95.60
1453;DHT22;720;47.738;7.998;2024-01-07T16:05:12;3.10;95.70
1453;DHT22;720;47.738;7.998;2024-01-07T16:07:38;2.90;96.30
1453;DHT22;720;47.738;7.998;2024-01-07T16:10:04;2.80;96.00
1453;DHT22;720;47.738;7.998;2024-01-07T16:12:30;2.80;96.60
1453;DHT22;720;47.738;7.998;2024-01-07T16:14:56;3.00;96.70
1453;DHT22;720;47.738;7.998;2024-01-07T16:17:23;3.00;95.90
1453;DHT22;720;47.738;7.998;2024-01-07T16:19:49;3.00;96.00
1453;DHT22;720;47.738;7.998;2024-01-07T16:22:14;3.00;96.00
1453;DHT22;720;47.738;7.998;2024-01-07T16:24:40;3.00;95.70
1453;DHT22;720;47.738;7.998;2024-01-07T16:27:07;3.10;95.70
1453;DHT22;720;47.738;7.998;2024-01-07T16:29:33;3.10;95.60
1453;DHT22;720;47.738;7.998;2024-01-07T16:31:59;3.00;95.70
1453;DHT22;720;47.738;7.998;2024-01-07T16:34:25;3.00;95.40